Search for airport 
image banner adimage banner adimage banner ad
image banner ad

1PS9 - Wicker&Wings Aerodrome

Located in Trumbauersville, United States

ICAO - 1PS9, IATA -

Data provided by Airmate  

General information

Coordinates: N40°24'12" W75°22'14"
Elevation is 590 feet MSL.
Magnetic variation is -11° East
View others Airports in Pennsylvania

Operational data

Special qualification required
Current time UTC:
Current local time:
Weather at : KUKT - Quakertown ( 4 km )
METAR: KUKT 190035Z AUTO 00000KT 10SM CLR 20/09 A3026 RMK A01
View NOTAMs / SUP AIP / TFR affecting this airport [VIEW]
Communications frequencies: [VIEW]

Runways:

RWY identifierQFULength (ft)Width (ft)SurfaceLDA (ft)
181761100GRASS
361761100GRASS

Airport contact information

Address: Trumbauersville United States

Satellite view of 1PS9